Daroja — P3MF7 — position and weather

sailwx.info

Track history (hours):
 
Tides and Currents Weather Stations Pressure Air Temp Water Temp Dewpoint Dewpoint Depression Visibility Wind Speed Wind Dir Waves Ship Positions

Daroja

Last reported at 2018-Jan-26 06:38 UTC. Time now 2018-Feb-20 04:16 UTC.
Position N 39°23' W 009°49'.
Warning: this ship's position is 24 days out of date.

Length 91 m; draft 5.7 m.

Type: Ship. MMSI: 212362000.

Date/timePositionNaut miles runAvg speedWind from/ knotsBaromVisibWave heightAir tempDewpointWater temp
2018-Jan-26 06:38N 39°23' W 009°49'1 6.3
2018-Jan-26 06:30N 39°22' W 009°49'3 6.7
2018-Jan-26 06:00N 39°19' W 009°49'3 7.0
2018-Jan-26 05:31N 39°15' W 009°50'3 6.7
2018-Jan-26 05:00N 39°12' W 009°50'3 6.5
2018-Jan-26 04:30N 39°09' W 009°50'3 6.6
2018-Jan-26 04:00N 39°05' W 009°50'3 6.4
2018-Jan-26 03:30N 39°02' W 009°50'3 6.5
2018-Jan-26 03:00N 38°59' W 009°50'3 6.5
2018-Jan-26 02:30N 38°56' W 009°50'3 6.7
2018-Jan-26 02:00N 38°52' W 009°50'3 6.7
2018-Jan-26 01:30N 38°49' W 009°50'3 6.7
2018-Jan-26 01:01N 38°46' W 009°50'3 6.6
2018-Jan-26 00:30N 38°42' W 009°50'3 6.6
2018-Jan-26 00:01N 38°39' W 009°49'4 7.0
2018-Jan-25 23:30N 38°36' W 009°49'4 7.3
2018-Jan-25 23:00N 38°32' W 009°49'7 7.1
2018-Jan-25 22:01N 38°25' W 009°49'4 7.3
2018-Jan-25 21:30N 38°21' W 009°49'4 7.1
2018-Jan-25 21:00N 38°18' W 009°48'4 6.7
2018-Jan-25 20:25N 38°14' W 009°48'3 6.9
2018-Jan-25 19:59N 38°11' W 009°48'  
Track history (hours):
 
Tides and Currents Weather Stations Pressure Air Temp Water Temp Dewpoint Dewpoint Depression Visibility Wind Speed Wind Dir Waves Ship Positions

Daroja

Last reported at 2018-Jan-26 06:38 UTC. Time now 2018-Feb-20 04:16 UTC.
Position N 39°23' W 009°49'.
Warning: this ship's position is 24 days out of date.

Length 91 m; draft 5.7 m.

Type: Ship. MMSI: 212362000.

Date/timePositionNaut miles runAvg speedWind from/ knotsBaromVisibWave heightAir tempDewpointWater temp
2018-Jan-26 06:38N 39°23' W 009°49'1 6.3
2018-Jan-26 06:30N 39°22' W 009°49'3 6.7
2018-Jan-26 06:00N 39°19' W 009°49'3 7.0
2018-Jan-26 05:31N 39°15' W 009°50'3 6.7
2018-Jan-26 05:00N 39°12' W 009°50'3 6.5
2018-Jan-26 04:30N 39°09' W 009°50'3 6.6
2018-Jan-26 04:00N 39°05' W 009°50'3 6.4
2018-Jan-26 03:30N 39°02' W 009°50'3 6.5
2018-Jan-26 03:00N 38°59' W 009°50'3 6.5
2018-Jan-26 02:30N 38°56' W 009°50'3 6.7
2018-Jan-26 02:00N 38°52' W 009°50'3 6.7
2018-Jan-26 01:30N 38°49' W 009°50'3 6.7
2018-Jan-26 01:01N 38°46' W 009°50'3 6.6
2018-Jan-26 00:30N 38°42' W 009°50'3 6.6
2018-Jan-26 00:01N 38°39' W 009°49'4 7.0
2018-Jan-25 23:30N 38°36' W 009°49'4 7.3
2018-Jan-25 23:00N 38°32' W 009°49'7 7.1
2018-Jan-25 22:01N 38°25' W 009°49'4 7.3
2018-Jan-25 21:30N 38°21' W 009°49'4 7.1
2018-Jan-25 21:00N 38°18' W 009°48'4 6.7
2018-Jan-25 20:25N 38°14' W 009°48'3 6.9
2018-Jan-25 19:59N 38°11' W 009°48'  

Dump ship's entire track history